createdAt,value
2023-07-18T00:01:10.335Z,17.44
2023-07-18T00:03:41.780Z,17.36
2023-07-18T00:06:13.572Z,17.34
2023-07-18T00:08:49.258Z,17.20
2023-07-18T00:11:24.138Z,17.26
2023-07-18T00:14:02.178Z,17.22
2023-07-18T00:16:33.278Z,17.12
2023-07-18T00:19:08.785Z,17.24
2023-07-18T00:21:41.726Z,17.08
2023-07-18T00:24:13.899Z,16.92
2023-07-18T00:26:49.377Z,16.90
2023-07-18T00:29:22.392Z,16.82
2023-07-18T00:31:56.358Z,16.79
2023-07-18T00:34:31.391Z,16.96
2023-07-18T00:37:06.362Z,16.84
2023-07-18T00:39:40.287Z,16.77
2023-07-18T00:42:12.644Z,16.79
2023-07-18T00:44:43.687Z,16.84
2023-07-18T00:47:15.303Z,16.76
2023-07-18T00:49:47.503Z,16.74
2023-07-18T00:52:24.628Z,16.59
2023-07-18T00:55:00.176Z,16.66
2023-07-18T00:57:35.578Z,16.50
2023-07-18T01:00:08.501Z,16.56
2023-07-18T01:02:47.173Z,16.54
2023-07-18T01:05:20.584Z,16.40
2023-07-18T01:07:54.373Z,16.54
2023-07-18T01:10:29.774Z,16.38
2023-07-18T01:13:02.538Z,16.38
2023-07-18T01:15:35.340Z,16.36
2023-07-18T01:18:07.787Z,16.25
2023-07-18T01:20:41.701Z,16.26
2023-07-18T01:23:15.370Z,16.29
2023-07-18T01:25:46.246Z,16.24
2023-07-18T01:28:19.251Z,16.22
2023-07-18T01:30:52.103Z,16.12
2023-07-18T01:33:25.010Z,16.18
2023-07-18T01:35:55.811Z,16.03
2023-07-18T01:38:30.317Z,15.92
2023-07-18T01:41:01.614Z,15.89
2023-07-18T01:43:32.325Z,15.85
2023-07-18T01:46:04.628Z,15.74
2023-07-18T01:48:35.797Z,15.70
2023-07-18T01:51:06.978Z,15.80
2023-07-18T01:53:37.736Z,15.66
2023-07-18T01:56:09.227Z,15.74
2023-07-18T01:58:41.459Z,15.62
2023-07-18T02:01:12.393Z,15.62
2023-07-18T02:03:43.236Z,15.56
2023-07-18T02:06:13.945Z,15.50
2023-07-18T02:08:45.405Z,15.57
2023-07-18T02:11:16.506Z,15.44
2023-07-18T02:13:48.334Z,15.49
2023-07-18T02:16:20.871Z,15.39
2023-07-18T02:18:52.299Z,15.56
2023-07-18T02:21:23.484Z,15.52
2023-07-18T02:23:57.542Z,15.57
2023-07-18T02:26:28.143Z,15.45
2023-07-18T02:29:04.554Z,15.64
2023-07-18T02:31:35.828Z,15.61
2023-07-18T02:34:06.537Z,15.60
2023-07-18T02:36:37.324Z,15.60
2023-07-18T02:39:09.756Z,15.65
2023-07-18T02:41:42.130Z,15.59
2023-07-18T02:44:14.809Z,15.50
2023-07-18T02:46:48.387Z,15.31
2023-07-18T02:49:20.829Z,15.42
2023-07-18T02:51:51.717Z,15.39
2023-07-18T02:54:24.097Z,15.22
2023-07-18T02:56:54.920Z,15.38
2023-07-18T02:59:29.986Z,15.39
2023-07-18T03:02:04.732Z,15.32
2023-07-18T03:04:37.218Z,15.22
2023-07-18T03:07:09.563Z,15.22
2023-07-18T03:09:42.487Z,15.11
2023-07-18T03:12:13.380Z,15.12
2023-07-18T03:14:44.904Z,15.17
2023-07-18T03:17:17.119Z,15.11
2023-07-18T03:19:48.293Z,15.11
2023-07-18T03:22:19.038Z,15.16
2023-07-18T03:24:49.933Z,15.16
2023-07-18T03:27:20.905Z,15.14
2023-07-18T03:29:52.709Z,15.09
2023-07-18T03:32:23.776Z,14.98
2023-07-18T03:34:57.646Z,15.09
2023-07-18T03:37:30.335Z,15.13
2023-07-18T03:40:01.363Z,15.21
2023-07-18T03:42:32.914Z,15.27
2023-07-18T03:45:04.141Z,15.19
2023-07-18T03:47:35.165Z,15.22
2023-07-18T03:50:07.380Z,15.11
2023-07-18T03:52:38.044Z,15.20
2023-07-18T03:55:10.262Z,15.32
2023-07-18T03:57:42.825Z,15.17
2023-07-18T04:00:19.886Z,15.21
2023-07-18T04:02:51.599Z,15.21
2023-07-18T04:05:22.186Z,15.36
2023-07-18T04:07:55.539Z,15.39
2023-07-18T04:10:26.283Z,15.41
2023-07-18T04:12:58.894Z,15.38
2023-07-18T04:15:31.956Z,15.54
2023-07-18T04:18:02.750Z,15.55
2023-07-18T04:20:36.202Z,15.41
2023-07-18T04:23:08.824Z,15.46
2023-07-18T04:25:43.667Z,15.58
2023-07-18T04:28:14.531Z,15.64
2023-07-18T04:30:46.661Z,15.72
2023-07-18T04:33:17.351Z,15.52
2023-07-18T04:35:47.931Z,15.67
2023-07-18T04:38:20.386Z,15.73
2023-07-18T04:40:54.301Z,15.85
2023-07-18T04:43:25.252Z,15.86
2023-07-18T04:45:56.910Z,16.00
2023-07-18T04:48:28.611Z,16.01
2023-07-18T04:51:02.900Z,15.92
2023-07-18T04:53:34.651Z,16.02
2023-07-18T04:56:07.140Z,16.08
2023-07-18T04:58:37.657Z,16.36
2023-07-18T05:01:10.637Z,17.10
2023-07-18T05:03:57.342Z,19.76
2023-07-18T05:06:18.784Z,22.42
2023-07-18T05:08:50.640Z,25.20
2023-07-18T05:11:23.095Z,27.42
2023-07-18T05:13:54.729Z,28.80
2023-07-18T05:16:26.157Z,30.36
2023-07-18T05:18:57.175Z,31.30
2023-07-18T05:21:28.089Z,30.96
2023-07-18T05:24:00.241Z,31.76
2023-07-18T05:26:32.323Z,31.50
2023-07-18T05:29:10.176Z,31.34
2023-07-18T05:31:41.368Z,30.68
2023-07-18T05:34:14.239Z,29.26
2023-07-18T05:36:46.464Z,29.95
2023-07-18T05:39:17.777Z,30.77
2023-07-18T05:41:49.253Z,32.77
2023-07-18T05:44:21.904Z,33.90
2023-07-18T05:46:52.695Z,35.21
2023-07-18T05:49:24.516Z,36.15
2023-07-18T05:51:55.568Z,35.82
2023-07-18T05:54:29.554Z,35.32
2023-07-18T05:57:02.994Z,35.78
2023-07-18T05:59:34.441Z,34.57
2023-07-18T06:02:05.862Z,35.00
2023-07-18T06:04:41.909Z,35.93
2023-07-18T06:07:14.224Z,35.78
2023-07-18T06:09:45.060Z,35.90
2023-07-18T06:12:20.229Z,37.11
2023-07-18T06:14:52.832Z,36.92
2023-07-18T06:17:29.556Z,36.56
2023-07-18T06:20:03.467Z,37.02
2023-07-18T06:22:34.149Z,36.25
2023-07-18T06:25:05.621Z,37.61
2023-07-18T06:27:36.539Z,38.17
2023-07-18T06:30:09.772Z,38.16
2023-07-18T06:32:41.252Z,38.52
2023-07-18T06:37:47.144Z,34.40
2023-07-18T06:40:19.518Z,36.92
2023-07-18T06:42:54.078Z,35.83
2023-07-18T06:45:32.823Z,35.31
2023-07-18T06:48:04.595Z,35.76
2023-07-18T06:50:36.787Z,36.38
2023-07-18T06:53:07.363Z,37.90
2023-07-18T06:55:38.069Z,38.10
2023-07-18T06:58:11.236Z,38.65
2023-07-18T07:00:43.272Z,36.54
2023-07-18T07:03:15.278Z,36.23
2023-07-18T07:05:47.887Z,33.02
2023-07-18T07:08:21.821Z,30.03
2023-07-18T07:10:56.949Z,27.73
2023-07-18T07:13:28.507Z,27.21
2023-07-18T07:16:01.645Z,25.68
2023-07-18T07:18:33.664Z,25.02
2023-07-18T07:21:06.949Z,24.39
2023-07-18T07:23:38.196Z,24.00
2023-07-18T07:26:11.794Z,23.08
2023-07-18T07:28:43.892Z,22.14
2023-07-18T07:31:16.192Z,22.80
2023-07-18T07:33:47.205Z,22.21
2023-07-18T07:36:18.100Z,22.10
2023-07-18T07:38:49.478Z,22.41
2023-07-18T07:41:29.388Z,22.20
2023-07-18T07:43:59.487Z,21.96
2023-07-18T07:46:31.309Z,21.72
2023-07-18T07:49:05.525Z,21.85
2023-07-18T07:51:37.627Z,21.58
2023-07-18T07:54:09.028Z,21.45
2023-07-18T07:56:39.632Z,21.48
2023-07-18T07:59:12.263Z,21.19
2023-07-18T08:01:46.189Z,21.49
2023-07-18T08:04:19.286Z,21.59
2023-07-18T08:06:50.663Z,21.62
2023-07-18T08:09:21.436Z,21.72
2023-07-18T08:11:53.803Z,21.58
2023-07-18T08:14:24.538Z,21.60
2023-07-18T08:16:56.777Z,21.18
2023-07-18T08:19:29.205Z,21.67
2023-07-18T08:22:01.876Z,21.63
2023-07-18T08:24:33.906Z,21.96
2023-07-18T08:27:07.531Z,21.98
2023-07-18T08:29:38.281Z,21.86
2023-07-18T08:32:10.243Z,21.40
2023-07-18T08:34:45.182Z,21.92
2023-07-18T08:37:15.932Z,22.00
2023-07-18T08:39:46.771Z,22.05
2023-07-18T08:42:19.191Z,22.15
2023-07-18T08:44:51.159Z,22.08
2023-07-18T08:47:24.832Z,21.97
2023-07-18T08:49:55.743Z,22.15
2023-07-18T08:52:27.919Z,22.19
2023-07-18T08:54:58.444Z,22.28
2023-07-18T08:57:30.173Z,22.22
2023-07-18T09:00:12.336Z,22.24
2023-07-18T09:02:39.851Z,22.31
2023-07-18T09:05:17.221Z,22.50
2023-07-18T09:07:49.041Z,22.45
2023-07-18T09:10:22.845Z,22.34
2023-07-18T09:12:53.753Z,22.16
2023-07-18T09:15:24.343Z,22.39
2023-07-18T09:17:59.416Z,22.38
2023-07-18T09:20:32.001Z,22.65
2023-07-18T09:23:07.024Z,22.30
2023-07-18T09:25:42.192Z,22.58
2023-07-18T09:28:14.290Z,22.08
2023-07-18T09:30:46.282Z,22.39
2023-07-18T09:33:19.519Z,22.54
2023-07-18T09:35:50.320Z,22.46
2023-07-18T09:38:21.974Z,22.62
2023-07-18T09:40:53.996Z,22.52
2023-07-18T09:43:25.742Z,22.24
2023-07-18T09:45:58.690Z,22.10
2023-07-18T09:48:44.837Z,21.73
2023-07-18T09:51:09.365Z,22.17
2023-07-18T09:53:43.424Z,22.51
2023-07-18T09:56:16.288Z,22.71
2023-07-18T09:58:50.862Z,22.90
2023-07-18T10:01:24.875Z,23.66
2023-07-18T10:03:58.020Z,23.80
2023-07-18T10:06:30.344Z,23.71
2023-07-18T10:09:05.137Z,23.86
2023-07-18T10:11:56.606Z,23.66
2023-07-18T10:14:37.285Z,23.69
2023-07-18T10:17:11.267Z,23.91
2023-07-18T10:19:51.704Z,24.14
2023-07-18T10:22:33.428Z,23.98
2023-07-18T10:25:08.759Z,23.86
2023-07-18T10:27:46.496Z,23.82
2023-07-18T10:30:19.772Z,23.83
2023-07-18T10:32:58.718Z,24.01
2023-07-18T10:35:29.855Z,23.92
2023-07-18T10:38:06.893Z,24.11
2023-07-18T10:40:44.369Z,24.42
2023-07-18T10:43:21.428Z,24.28
2023-07-18T10:45:55.666Z,24.28
2023-07-18T10:48:28.597Z,24.36
2023-07-18T10:50:59.814Z,24.66
2023-07-18T10:53:32.097Z,24.94
2023-07-18T10:56:03.113Z,24.76
2023-07-18T10:58:38.521Z,24.49
2023-07-18T11:01:12.334Z,24.87
2023-07-18T11:03:52.073Z,24.89
2023-07-18T11:06:24.281Z,25.16
2023-07-18T11:08:55.807Z,25.21
2023-07-18T11:11:28.142Z,24.85
2023-07-18T11:14:00.002Z,24.96
2023-07-18T11:16:30.979Z,25.24
2023-07-18T11:19:10.449Z,25.23
2023-07-18T11:21:41.332Z,25.27
2023-07-18T11:24:12.699Z,25.05
2023-07-18T11:26:46.427Z,25.32
2023-07-18T11:29:18.794Z,25.15
2023-07-18T11:31:51.022Z,24.90
2023-07-18T11:34:25.515Z,24.40
2023-07-18T11:36:58.284Z,24.53
2023-07-18T11:39:34.338Z,25.29
2023-07-18T11:42:09.817Z,25.32
2023-07-18T11:44:46.139Z,25.62
2023-07-18T11:47:21.330Z,25.76
2023-07-18T11:49:54.547Z,25.61
2023-07-18T11:52:31.099Z,24.79
2023-07-18T11:55:06.718Z,25.04
2023-07-18T11:57:43.891Z,25.33
2023-07-18T12:00:16.327Z,25.20
2023-07-18T12:02:50.132Z,25.57
2023-07-18T12:05:24.073Z,25.70
2023-07-18T12:07:56.018Z,25.33
2023-07-18T12:10:29.334Z,24.79
2023-07-18T12:13:01.697Z,25.14
2023-07-18T12:15:37.168Z,25.00
2023-07-18T12:18:08.798Z,24.93
2023-07-18T12:20:39.650Z,25.18
2023-07-18T12:23:13.486Z,24.76
2023-07-18T12:25:44.187Z,25.36
2023-07-18T12:28:15.001Z,25.29
2023-07-18T12:30:47.595Z,24.82
2023-07-18T12:33:18.806Z,24.76
2023-07-18T12:35:50.872Z,24.64
2023-07-18T12:38:23.335Z,24.90
2023-07-18T12:40:54.084Z,25.06
2023-07-18T12:43:24.688Z,24.44
2023-07-18T12:45:55.965Z,24.45
2023-07-18T12:48:27.834Z,24.42
2023-07-18T12:51:02.048Z,24.18
2023-07-18T12:53:34.348Z,24.22
2023-07-18T12:56:05.384Z,24.21
2023-07-18T12:58:41.011Z,24.16
2023-07-18T13:01:15.160Z,24.27
2023-07-18T13:03:45.865Z,24.76
2023-07-18T13:06:18.306Z,25.17
2023-07-18T13:08:49.182Z,25.40
2023-07-18T13:11:20.547Z,25.65
2023-07-18T13:13:51.545Z,25.72
2023-07-18T13:16:24.416Z,25.25
2023-07-18T13:18:55.108Z,25.27
2023-07-18T13:21:26.514Z,25.17
2023-07-18T13:23:58.464Z,25.26
2023-07-18T13:26:29.627Z,25.59
2023-07-18T13:29:02.645Z,25.48
2023-07-18T13:31:37.456Z,25.17
2023-07-18T13:34:11.159Z,25.22
2023-07-18T13:36:43.580Z,25.05
2023-07-18T13:39:14.359Z,24.96
2023-07-18T13:41:48.116Z,24.91
2023-07-18T13:44:22.047Z,24.95
2023-07-18T13:46:52.989Z,24.70
2023-07-18T13:49:24.672Z,24.69
2023-07-18T13:51:55.387Z,25.01
2023-07-18T13:54:27.635Z,24.90
2023-07-18T13:56:58.188Z,24.84
2023-07-18T13:59:30.092Z,25.11
2023-07-18T14:02:01.438Z,24.98
2023-07-18T14:04:32.274Z,25.30
2023-07-18T14:07:03.040Z,25.22
2023-07-18T14:09:36.457Z,25.34
2023-07-18T14:12:07.477Z,25.21
2023-07-18T14:14:39.196Z,24.71
2023-07-18T14:17:10.380Z,24.34
2023-07-18T14:19:41.258Z,24.51
2023-07-18T14:22:13.684Z,24.19
2023-07-18T14:24:48.307Z,24.31
2023-07-18T14:27:22.247Z,24.22
2023-07-18T14:29:56.016Z,24.41
2023-07-18T14:32:28.285Z,24.15
2023-07-18T14:35:00.836Z,24.07
2023-07-18T14:37:33.181Z,24.21
2023-07-18T14:40:05.642Z,24.47
2023-07-18T14:42:39.215Z,24.58
2023-07-18T14:45:10.495Z,24.46
2023-07-18T14:47:41.295Z,24.46
2023-07-18T14:50:14.823Z,24.75
2023-07-18T14:52:45.965Z,24.84
2023-07-18T14:55:21.135Z,24.72
2023-07-18T14:57:53.044Z,24.60
2023-07-18T15:00:24.225Z,24.65
2023-07-18T15:02:55.104Z,24.54
2023-07-18T15:05:26.939Z,24.61
2023-07-18T15:07:59.122Z,24.76
2023-07-18T15:10:30.243Z,24.82
2023-07-18T15:13:03.548Z,25.12
2023-07-18T15:15:36.655Z,24.78
2023-07-18T15:18:11.023Z,24.63
2023-07-18T15:20:48.167Z,24.86
2023-07-18T15:23:19.350Z,24.84
2023-07-18T15:25:52.745Z,24.88
2023-07-18T15:28:24.177Z,24.74
2023-07-18T15:30:58.076Z,24.66
2023-07-18T15:33:31.197Z,24.68
2023-07-18T15:36:02.375Z,24.98
2023-07-18T15:38:33.123Z,25.35
2023-07-18T15:41:04.343Z,25.75
2023-07-18T15:43:36.656Z,25.91
2023-07-18T15:46:07.361Z,25.78
2023-07-18T15:48:40.492Z,25.64
2023-07-18T15:51:13.545Z,25.19
2023-07-18T15:53:46.302Z,25.00
2023-07-18T15:56:17.805Z,24.91
2023-07-18T15:58:54.310Z,24.86
2023-07-18T16:01:25.068Z,24.81
2023-07-18T16:03:57.031Z,24.57
2023-07-18T16:06:31.495Z,24.78
2023-07-18T16:09:06.743Z,24.36
2023-07-18T16:11:37.513Z,24.42
2023-07-18T16:14:11.239Z,24.38
2023-07-18T16:16:43.597Z,24.42
2023-07-18T16:19:14.648Z,24.54
2023-07-18T16:21:45.309Z,24.68
2023-07-18T16:24:15.929Z,24.72
2023-07-18T16:26:47.403Z,24.70
2023-07-18T16:29:19.142Z,24.83
2023-07-18T16:31:49.715Z,25.15
2023-07-18T16:34:20.547Z,25.13
2023-07-18T16:36:54.668Z,24.80
2023-07-18T16:39:29.625Z,24.63
2023-07-18T16:42:09.738Z,24.39
2023-07-18T16:44:33.443Z,24.29
2023-07-18T16:47:06.318Z,24.26
2023-07-18T16:49:37.156Z,23.94
2023-07-18T16:52:10.619Z,24.03
2023-07-18T16:54:43.988Z,24.20
2023-07-18T16:57:15.729Z,24.25
2023-07-18T16:59:47.557Z,24.43
2023-07-18T17:02:18.153Z,24.31
2023-07-18T17:04:49.015Z,24.32
2023-07-18T17:07:19.692Z,24.38
2023-07-18T17:09:50.415Z,24.48
2023-07-18T17:12:21.153Z,24.59
2023-07-18T17:14:52.659Z,24.77
2023-07-18T17:17:23.681Z,24.60
2023-07-18T17:20:06.444Z,24.63
2023-07-18T17:22:26.814Z,24.88
2023-07-18T17:24:57.556Z,24.90
2023-07-18T17:27:29.120Z,24.89
2023-07-18T17:29:59.928Z,24.88
2023-07-18T17:32:30.487Z,24.82
2023-07-18T17:35:01.152Z,24.86
2023-07-18T17:37:32.436Z,25.02
2023-07-18T17:40:04.142Z,24.80
2023-07-18T17:42:37.248Z,24.66
2023-07-18T17:45:14.140Z,24.75
2023-07-18T17:47:44.705Z,24.64
2023-07-18T17:50:16.414Z,24.59
2023-07-18T17:52:49.406Z,24.61
2023-07-18T17:55:21.027Z,24.54
2023-07-18T17:57:53.665Z,24.35
2023-07-18T18:00:24.586Z,24.24
2023-07-18T18:02:56.547Z,24.08
2023-07-18T18:05:40.491Z,23.98
2023-07-18T18:08:13.585Z,23.75
2023-07-18T18:10:49.264Z,23.55
2023-07-18T18:13:21.085Z,23.42
2023-07-18T18:16:06.178Z,23.32
2023-07-18T18:18:28.604Z,23.20
2023-07-18T18:21:01.452Z,22.98
2023-07-18T18:23:39.354Z,22.87
2023-07-18T18:26:07.707Z,22.87
2023-07-18T18:28:38.732Z,22.79
2023-07-18T18:31:10.430Z,22.66
2023-07-18T18:33:41.021Z,22.62
2023-07-18T18:36:11.863Z,22.53
2023-07-18T18:38:42.762Z,22.53
2023-07-18T18:41:13.434Z,22.42
2023-07-18T18:43:50.907Z,22.39
2023-07-18T18:46:22.685Z,22.35
2023-07-18T18:48:54.599Z,22.32
2023-07-18T18:51:28.040Z,22.18
2023-07-18T18:53:59.604Z,22.16
2023-07-18T18:56:35.085Z,22.16
2023-07-18T18:59:10.434Z,22.00
2023-07-18T19:01:51.366Z,21.92
2023-07-18T19:04:23.833Z,21.86
2023-07-18T19:06:56.435Z,21.82
2023-07-18T19:09:30.001Z,21.82
2023-07-18T19:12:02.119Z,21.72
2023-07-18T19:14:33.041Z,21.67
2023-07-18T19:17:03.851Z,21.69
2023-07-18T19:19:46.472Z,21.69
2023-07-18T19:22:18.946Z,21.44
2023-07-18T19:24:51.254Z,21.41
2023-07-18T19:27:26.080Z,21.36
2023-07-18T19:29:57.925Z,21.28
2023-07-18T19:32:32.162Z,21.22
2023-07-18T19:35:04.811Z,21.10
2023-07-18T19:37:36.763Z,20.98
2023-07-18T19:40:08.495Z,20.92
2023-07-18T19:42:42.501Z,20.87
2023-07-18T19:45:14.277Z,20.75
2023-07-18T19:47:45.479Z,20.78
2023-07-18T19:50:15.980Z,20.72
2023-07-18T19:52:50.167Z,20.69
2023-07-18T19:55:23.413Z,20.64
2023-07-18T19:57:57.713Z,20.58
2023-07-18T20:00:30.196Z,20.84
2023-07-18T20:03:02.172Z,21.01
2023-07-18T20:05:33.872Z,21.13
2023-07-18T20:08:04.598Z,21.10
2023-07-18T20:10:37.932Z,21.13
2023-07-18T20:13:11.142Z,21.06
2023-07-18T20:15:42.313Z,21.07
2023-07-18T20:18:14.319Z,20.96
2023-07-18T20:20:48.541Z,20.75
2023-07-18T20:23:21.906Z,20.64
2023-07-18T20:25:55.029Z,20.53
2023-07-18T20:28:36.548Z,20.48
2023-07-18T20:31:07.540Z,20.44
2023-07-18T20:33:43.121Z,20.57
2023-07-18T20:36:12.957Z,20.40
2023-07-18T20:38:45.219Z,20.36
2023-07-18T20:41:17.730Z,20.37
2023-07-18T20:43:48.560Z,20.35
2023-07-18T20:46:20.569Z,20.37
2023-07-18T20:48:53.219Z,20.31
2023-07-18T20:51:24.646Z,20.30
2023-07-18T20:53:55.759Z,20.26
2023-07-18T20:56:26.348Z,20.16
2023-07-18T20:58:56.918Z,20.12
2023-07-18T21:01:30.014Z,20.09
2023-07-18T21:04:01.606Z,20.12
2023-07-18T21:06:32.328Z,20.05
2023-07-18T21:09:05.896Z,19.99
2023-07-18T21:11:44.622Z,19.93
2023-07-18T21:14:17.296Z,19.96
2023-07-18T21:16:49.453Z,19.85
2023-07-18T21:19:22.686Z,19.79
2023-07-18T21:21:53.269Z,19.76
2023-07-18T21:24:33.210Z,19.72
2023-07-18T21:27:03.871Z,19.63
2023-07-18T21:29:34.636Z,19.65
2023-07-18T21:32:05.577Z,19.63
2023-07-18T21:34:37.175Z,19.59
2023-07-18T21:37:07.974Z,19.58
2023-07-18T21:39:39.742Z,19.61
2023-07-18T21:42:11.152Z,19.63
2023-07-18T21:44:46.036Z,19.64
2023-07-18T21:47:16.676Z,19.65
2023-07-18T21:49:50.746Z,19.56
2023-07-18T21:52:21.648Z,19.56
2023-07-18T21:54:56.563Z,19.49
2023-07-18T21:57:27.441Z,19.45
2023-07-18T21:59:58.345Z,19.44
2023-07-18T22:02:35.954Z,19.38
2023-07-18T22:05:07.061Z,19.34
2023-07-18T22:07:37.692Z,19.26
2023-07-18T22:10:10.722Z,19.51
2023-07-18T22:12:41.255Z,19.63
2023-07-18T22:15:12.293Z,19.71
2023-07-18T22:17:42.862Z,19.76
2023-07-18T22:20:14.390Z,19.84
2023-07-18T22:22:45.123Z,19.82
2023-07-18T22:25:17.079Z,19.74
2023-07-18T22:27:47.789Z,19.58
2023-07-18T22:30:19.036Z,19.48
2023-07-18T22:32:50.361Z,19.34
2023-07-18T22:35:21.856Z,19.38
2023-07-18T22:37:52.384Z,19.28
2023-07-18T22:40:23.122Z,19.20
2023-07-18T22:42:53.728Z,19.21
2023-07-18T22:45:24.458Z,19.13
2023-07-18T22:47:55.219Z,19.09
2023-07-18T22:50:25.833Z,19.08
2023-07-18T22:52:56.356Z,19.16
2023-07-18T22:55:27.109Z,19.22
2023-07-18T22:57:57.787Z,19.36
2023-07-18T23:00:28.347Z,19.46
2023-07-18T23:02:59.035Z,19.44
2023-07-18T23:05:29.555Z,19.43
2023-07-18T23:08:02.102Z,19.35
2023-07-18T23:10:34.178Z,19.26
2023-07-18T23:13:04.832Z,19.32
2023-07-18T23:15:35.557Z,19.41
2023-07-18T23:18:06.543Z,19.41
2023-07-18T23:20:37.180Z,19.37
2023-07-18T23:23:09.945Z,19.34
2023-07-18T23:25:43.677Z,19.38
2023-07-18T23:28:16.092Z,19.28
2023-07-18T23:30:49.183Z,19.26
2023-07-18T23:33:21.276Z,19.23
2023-07-18T23:35:53.178Z,19.20
2023-07-18T23:38:23.667Z,19.22
2023-07-18T23:40:54.304Z,19.25
2023-07-18T23:43:29.529Z,19.35
2023-07-18T23:46:02.044Z,19.19
2023-07-18T23:48:32.891Z,19.08
2023-07-18T23:51:03.450Z,19.16
2023-07-18T23:53:36.329Z,19.21
2023-07-18T23:56:07.994Z,19.30
2023-07-18T23:58:40.758Z,19.10
